Time;durP1;ratioP1;P1;durP2;ratioP2;P2;SDS_P1;SDS_P2;PMS_P1;PMS_P2;Temp;Humidity;BMP_temperature;BMP_pressure;BME280_temperature;BME280_humidity;BME280_pressure;Samples;Min_cycle;Max_cycle;Signal;HPM_P1;HPM_P2
2023/03/19 00:00:44;;;;;;;39.10;16.10;;;;;;;5.25;42.40;98669.86;105033;1260;98068;-71
2023/03/19 00:03:11;;;;;;;34.70;14.40;;;;;;;5.23;42.45;98666.61;105161;1267;99189;-65
2023/03/19 00:05:38;;;;;;;25.40;11.40;;;;;;;5.22;42.84;98673.30;105013;1257;97981;-68
2023/03/19 00:08:05;;;;;;;25.20;11.30;;;;;;;5.22;43.05;98670.03;105081;1257;97911;-67
2023/03/19 00:10:38;;;;;;;22.40;11.80;;;;;;;5.22;43.14;98672.86;105160;1260;97935;-66
2023/03/19 00:13:05;;;;;;;24.80;12.10;;;;;;;5.22;43.25;98669.11;105032;1257;99272;-65
2023/03/19 00:15:32;;;;;;;28.60;13.70;;;;;;;5.21;43.49;98665.80;105122;1258;112425;-66
2023/03/19 00:18:00;;;;;;;28.80;13.30;;;;;;;5.20;43.61;98667.48;105113;1257;99114;-70
2023/03/19 00:20:27;;;;;;;31.80;12.30;;;;;;;5.21;43.71;98665.58;105004;1264;99314;-71
2023/03/19 00:22:54;;;;;;;30.30;14.10;;;;;;;5.22;44.05;98662.64;105114;1258;97919;-68
2023/03/19 00:25:22;;;;;;;33.00;13.00;;;;;;;5.22;44.06;98661.67;104959;1267;99237;-65
2023/03/19 00:27:51;;;;;;;27.10;11.70;;;;;;;5.22;44.03;98657.80;105045;1257;113531;-64
2023/03/19 00:30:18;;;;;;;21.60;9.90;;;;;;;5.23;44.24;98654.98;105064;1258;98964;-63
2023/03/19 00:32:46;;;;;;;20.50;10.10;;;;;;;5.23;44.38;98654.05;105091;1267;97960;-63
2023/03/19 00:35:13;;;;;;;23.60;11.90;;;;;;;5.23;44.78;98652.36;105223;1257;99238;-63
2023/03/19 00:37:40;;;;;;;36.50;17.70;;;;;;;5.24;45.03;98655.39;105127;1267;98456;-63
2023/03/19 00:40:09;;;;;;;38.50;14.70;;;;;;;5.25;45.24;98650.34;104949;1254;97889;-63
2023/03/19 00:42:36;;;;;;;43.70;16.00;;;;;;;5.24;45.23;98650.19;104872;1263;98363;-63
2023/03/19 00:45:04;;;;;;;37.70;13.90;;;;;;;5.24;45.39;98647.64;104979;1267;97860;-63
2023/03/19 00:47:31;;;;;;;28.80;12.10;;;;;;;5.24;45.65;98648.34;105068;1254;97911;-63
2023/03/19 00:49:59;;;;;;;16.60;8.60;;;;;;;5.24;45.93;98651.61;104910;1257;97852;-63
2023/03/19 00:52:26;;;;;;;26.40;14.10;;;;;;;5.25;45.94;98649.64;105152;1265;97925;-63
2023/03/19 00:54:53;;;;;;;22.80;12.10;;;;;;;5.26;46.20;98649.58;105199;1266;98569;-64
2023/03/19 00:57:20;;;;;;;28.90;13.20;;;;;;;5.27;46.36;98647.89;105150;1258;98901;-65
2023/03/19 00:59:47;;;;;;;17.00;8.40;;;;;;;5.26;46.61;98648.11;105117;1258;98416;-64
2023/03/19 01:02:14;;;;;;;27.90;12.60;;;;;;;5.26;46.53;98648.34;105202;1258;97924;-64
2023/03/19 01:04:41;;;;;;;26.50;12.00;;;;;;;5.26;47.01;98654.14;105126;1258;99302;-64
2023/03/19 01:07:09;;;;;;;27.90;12.80;;;;;;;5.27;46.94;98653.92;104943;1260;98012;-62
2023/03/19 01:09:36;;;;;;;21.90;10.40;;;;;;;5.26;47.10;98648.00;105084;1267;97917;-63
2023/03/19 01:12:03;;;;;;;20.40;11.40;;;;;;;5.25;47.17;98648.12;105063;1257;97992;-72
2023/03/19 01:14:31;;;;;;;20.70;11.30;;;;;;;5.23;47.35;98648.13;105195;1257;98087;-65
2023/03/19 01:16:59;;;;;;;22.30;11.50;;;;;;;5.21;47.28;98650.10;105207;1267;98725;-63
2023/03/19 01:19:26;;;;;;;30.30;14.50;;;;;;;5.18;47.60;98648.64;105174;1267;97901;-66
2023/03/19 01:21:53;;;;;;;22.60;10.60;;;;;;;5.12;47.76;98650.45;105157;1257;97934;-63
2023/03/19 01:24:20;;;;;;;37.40;16.80;;;;;;;5.04;48.37;98650.70;105230;1257;98706;-64
2023/03/19 01:26:47;;;;;;;39.60;19.40;;;;;;;4.95;48.49;98649.36;105219;1257;112228;-66
2023/03/19 01:29:15;;;;;;;43.70;19.10;;;;;;;4.84;48.77;98650.05;105034;1257;98039;-67
2023/03/19 01:31:42;;;;;;;56.50;24.90;;;;;;;4.68;49.12;98647.81;105145;1257;98503;-66
2023/03/19 01:34:09;;;;;;;61.40;27.00;;;;;;;4.54;49.47;98648.93;104959;1267;97896;-64
2023/03/19 01:36:37;;;;;;;71.80;30.50;;;;;;;4.40;49.86;98649.38;105075;1257;97947;-69
2023/03/19 01:39:04;;;;;;;72.40;31.70;;;;;;;4.22;50.17;98652.97;105261;1267;97904;-63
2023/03/19 01:41:31;;;;;;;79.90;35.10;;;;;;;4.03;50.94;98650.95;105002;1257;98059;-64
2023/03/19 01:43:58;;;;;;;91.90;39.80;;;;;;;3.77;51.35;98652.29;104984;1258;98009;-67
2023/03/19 01:46:43;;;;;;;131.40;51.90;;;;;;;3.53;52.18;98653.48;105158;1264;97915;-63
2023/03/19 01:49:12;;;;;;;97.60;43.00;;;;;;;3.24;52.77;98645.05;105107;1259;97915;-66
2023/03/19 01:51:44;;;;;;;81.20;35.60;;;;;;;3.00;53.31;98648.91;104873;1261;112194;-65
2023/03/19 01:54:15;;;;;;;84.90;36.70;;;;;;;2.80;53.02;98654.92;104709;1261;98572;-67
2023/03/19 01:56:43;;;;;;;;;;;;;;;2.67;52.36;98655.13;104811;1269;107662;-65
2023/03/19 01:59:17;;;;;;;106.70;42.30;;;;;;;2.62;52.76;98654.84;105238;1263;97905;-65
2023/03/19 02:01:56;;;;;;;123.20;45.70;;;;;;;2.60;52.73;98651.26;105203;1258;98427;-67
2023/03/19 02:04:27;;;;;;;147.60;53.80;;;;;;;2.55;53.09;98646.19;105229;1267;112126;-66
2023/03/19 02:06:55;;;;;;;;;;;;;;;2.50;53.21;98645.07;105157;1258;97940;-65
2023/03/19 02:09:25;;;;;;;94.10;35.10;;;;;;;2.45;53.82;98644.06;104830;1270;108040;-67
2023/03/19 02:11:53;;;;;;;87.20;32.50;;;;;;;2.42;54.29;98646.41;105266;1267;97898;-68
2023/03/19 02:14:21;;;;;;;40.70;19.20;;;;;;;2.46;55.33;98649.15;104728;1263;99246;-64
2023/03/19 02:16:48;;;;;;;69.40;29.20;;;;;;;2.59;55.27;98646.05;105070;1257;112143;-68
2023/03/19 02:19:47;;;;;;;65.60;26.70;;;;;;;2.64;54.88;98651.81;105236;1254;97993;-72
2023/03/19 02:22:19;;;;;;;54.10;23.40;;;;;;;2.62;54.84;98657.44;105000;1267;108767;-63
2023/03/19 02:24:57;;;;;;;50.60;23.60;;;;;;;2.61;54.87;98660.94;105150;1267;98126;-66
2023/03/19 02:27:25;;;;;;;83.40;32.00;;;;;;;2.53;55.40;98662.57;105210;1257;97817;-71
2023/03/19 02:29:52;;;;;;;90.20;34.00;;;;;;;2.38;56.36;98666.84;104958;1257;112099;-63
2023/03/19 02:32:20;;;;;;;91.10;36.40;;;;;;;2.14;56.95;98668.01;105095;1258;98006;-64
2023/03/19 02:34:47;;;;;;;91.60;39.00;;;;;;;2.00;56.75;98671.41;105033;1258;108211;-73
2023/03/19 02:37:25;;;;;;;87.10;36.50;;;;;;;1.91;56.63;98671.48;105115;1256;97927;-67
2023/03/19 02:40:13;;;;;;;87.60;35.10;;;;;;;1.82;56.85;98673.67;105293;1254;99114;-69
2023/03/19 02:42:41;;;;;;;86.80;35.90;;;;;;;1.71;56.92;98673.29;105115;1258;112389;-68
2023/03/19 02:45:10;;;;;;;75.60;32.60;;;;;;;1.64;57.26;98674.41;104942;1267;98046;-67
2023/03/19 02:47:37;;;;;;;75.80;33.10;;;;;;;1.57;57.35;98677.48;105205;1258;108699;-63
2023/03/19 02:50:05;;;;;;;72.00;31.00;;;;;;;1.52;57.57;98677.20;105226;1267;97999;-63
2023/03/19 02:52:33;;;;;;;79.70;33.80;;;;;;;1.44;57.99;98673.23;105316;1256;97835;-63
2023/03/19 02:55:00;;;;;;;75.30;31.00;;;;;;;1.32;59.31;98670.92;105114;1260;111210;-63
2023/03/19 02:57:27;;;;;;;99.50;38.90;;;;;;;1.23;60.63;98671.10;105246;1264;97942;-68
2023/03/19 02:59:54;;;;;;;78.40;32.30;;;;;;;1.09;61.23;98674.98;105230;1267;99286;-63
2023/03/19 03:02:21;;;;;;;71.70;30.60;;;;;;;0.94;61.40;98678.67;105149;1254;97970;-70
2023/03/19 03:04:48;;;;;;;74.00;31.00;;;;;;;0.80;61.55;98680.00;105243;1267;98013;-66
2023/03/19 03:07:16;;;;;;;73.30;30.90;;;;;;;0.75;60.84;98683.27;105184;1257;99216;-67
2023/03/19 03:09:43;;;;;;;79.00;32.10;;;;;;;0.73;60.58;98680.71;105162;1263;98611;-63
2023/03/19 03:12:11;;;;;;;74.80;32.30;;;;;;;0.73;60.52;98677.59;105070;1257;97899;-63
2023/03/19 03:14:39;;;;;;;86.10;36.00;;;;;;;0.75;60.47;98683.93;105198;1256;97931;-66
2023/03/19 03:17:07;;;;;;;93.90;39.00;;;;;;;0.78;60.38;98681.64;105264;1267;97973;-63
2023/03/19 03:19:34;;;;;;;98.50;37.80;;;;;;;0.79;60.44;98678.54;104977;1262;111255;-64
2023/03/19 03:22:02;;;;;;;103.70;39.70;;;;;;;0.78;60.42;98679.11;105181;1258;99392;-65
2023/03/19 03:24:29;;;;;;;78.20;32.00;;;;;;;0.73;61.84;98681.14;105121;1258;108771;-66
2023/03/19 03:26:56;;;;;;;65.40;30.00;;;;;;;0.62;62.53;98679.14;105046;1254;97935;-65
2023/03/19 03:29:24;;;;;;;62.10;29.20;;;;;;;0.55;63.03;98680.60;105234;1253;97969;-64
2023/03/19 03:31:52;;;;;;;65.60;28.60;;;;;;;0.50;63.09;98675.63;105094;1257;109690;-63
2023/03/19 03:34:19;;;;;;;58.80;25.40;;;;;;;0.52;62.55;98675.48;105228;1258;97971;-64
2023/03/19 03:36:46;;;;;;;68.40;30.00;;;;;;;0.56;62.39;98674.96;105148;1257;97954;-63
2023/03/19 03:39:14;;;;;;;67.80;29.60;;;;;;;0.61;62.45;98675.08;105109;1257;97941;-65
2023/03/19 03:41:41;;;;;;;64.90;27.90;;;;;;;0.64;62.40;98670.27;105125;1257;97961;-64
2023/03/19 03:44:09;;;;;;;70.40;31.30;;;;;;;0.67;62.44;98665.10;104960;1259;98008;-63
2023/03/19 03:46:36;;;;;;;67.20;29.20;;;;;;;0.69;62.69;98665.06;105208;1257;97904;-63
2023/03/19 03:49:03;;;;;;;66.00;28.00;;;;;;;0.71;62.60;98669.08;104982;1259;98412;-64
2023/03/19 03:51:31;;;;;;;58.40;26.10;;;;;;;0.72;62.58;98668.78;105144;1272;97913;-64
2023/03/19 03:53:58;;;;;;;55.90;25.10;;;;;;;0.74;62.57;98665.46;105178;1253;97994;-66
2023/03/19 03:56:25;;;;;;;64.70;26.10;;;;;;;0.77;62.53;98666.36;105174;1257;99206;-64
2023/03/19 03:58:53;;;;;;;57.00;25.30;;;;;;;0.75;63.25;98670.33;105120;1267;97964;-67
2023/03/19 04:01:20;;;;;;;51.50;22.40;;;;;;;0.68;64.68;98670.93;105235;1254;97899;-69
2023/03/19 04:03:48;;;;;;;53.20;23.90;;;;;;;0.62;63.61;98673.33;105211;1257;97892;-64
2023/03/19 04:06:17;;;;;;;57.20;23.60;;;;;;;0.57;63.53;98670.66;104957;1257;98878;-65
2023/03/19 04:08:48;;;;;;;51.40;22.80;;;;;;;0.56;63.36;98674.67;105184;1266;112230;-63
2023/03/19 04:11:17;;;;;;;52.50;24.00;;;;;;;0.58;63.40;98673.48;105207;1266;99209;-64
2023/03/19 04:13:47;;;;;;;58.70;24.60;;;;;;;0.59;63.69;98672.31;105202;1257;108776;-65
2023/03/19 04:16:17;;;;;;;51.40;23.50;;;;;;;0.60;63.90;98672.59;105223;1266;99238;-64
2023/03/19 04:18:44;;;;;;;50.50;23.40;;;;;;;0.60;63.91;98671.30;105091;1252;98319;-63
2023/03/19 04:21:12;;;;;;;53.90;24.20;;;;;;;0.62;63.99;98667.81;105237;1266;97969;-64
2023/03/19 04:23:39;;;;;;;55.30;24.30;;;;;;;0.64;63.86;98666.71;105153;1268;99436;-68
2023/03/19 04:26:07;;;;;;;54.10;23.30;;;;;;;0.62;64.06;98663.28;105174;1257;97988;-64
2023/03/19 04:28:34;;;;;;;55.10;24.60;;;;;;;0.61;64.15;98663.66;105218;1256;98819;-68
2023/03/19 04:31:03;;;;;;;59.80;25.80;;;;;;;0.61;64.40;98657.79;105062;1258;97983;-67
2023/03/19 04:33:30;;;;;;;55.40;23.20;;;;;;;0.58;64.63;98660.68;105012;1268;112149;-64
2023/03/19 04:35:58;;;;;;;49.60;22.80;;;;;;;0.57;64.72;98659.17;105238;1257;97994;-65
2023/03/19 04:38:26;;;;;;;47.00;21.30;;;;;;;0.54;64.65;98661.61;105204;1256;107986;-66
2023/03/19 04:40:56;;;;;;;51.40;23.20;;;;;;;0.52;64.62;98657.49;105179;1258;98042;-66
2023/03/19 04:43:24;;;;;;;49.00;23.90;;;;;;;0.48;64.64;98652.96;104931;1260;98095;-64
2023/03/19 04:45:51;;;;;;;54.00;24.70;;;;;;;0.50;64.82;98651.20;105191;1257;111975;-64
2023/03/19 04:48:18;;;;;;;60.40;24.60;;;;;;;0.53;64.82;98654.15;105621;1254;97951;-63
2023/03/19 04:50:46;;;;;;;60.30;25.20;;;;;;;0.55;64.58;98656.83;104853;1257;289509;-63
2023/03/19 04:53:13;;;;;;;54.10;24.10;;;;;;;0.53;64.66;98657.39;105202;1257;97924;-64
2023/03/19 04:55:40;;;;;;;59.80;24.90;;;;;;;0.50;64.65;98653.27;105082;1257;97982;-65
2023/03/19 04:58:08;;;;;;;55.60;24.20;;;;;;;0.48;64.54;98652.32;104993;1269;98093;-66
2023/03/19 05:00:35;;;;;;;54.70;25.10;;;;;;;0.47;65.18;98656.94;105021;1256;98278;-65
2023/03/19 05:03:03;;;;;;;60.80;25.70;;;;;;;0.48;65.16;98652.89;105088;1257;97998;-64
2023/03/19 05:05:30;;;;;;;49.90;23.00;;;;;;;0.43;66.13;98649.33;105124;1252;98021;-65
2023/03/19 05:07:57;;;;;;;52.60;23.50;;;;;;;0.40;66.34;98651.60;104931;1257;97909;-64
2023/03/19 05:10:24;;;;;;;49.60;22.50;;;;;;;0.42;66.43;98654.27;105167;1257;99212;-65
2023/03/19 05:12:51;;;;;;;54.90;23.60;;;;;;;0.48;66.29;98654.73;105037;1254;98008;-64
2023/03/19 05:15:17;;;;;;;234.20;62.10;;;;;;;0.49;66.29;98655.77;105100;1257;97994;-64
2023/03/19 05:17:44;;;;;;;119.20;39.60;;;;;;;0.48;66.10;98656.09;105020;1257;99209;-64
2023/03/19 05:20:12;;;;;;;161.80;48.50;;;;;;;0.47;66.08;98659.47;104996;1259;98265;-63
2023/03/19 05:22:38;;;;;;;75.20;28.60;;;;;;;0.44;67.03;98666.80;105171;1258;97890;-64
2023/03/19 05:25:06;;;;;;;56.30;22.60;;;;;;;0.38;67.39;98669.84;105083;1257;97945;-64
2023/03/19 05:27:33;;;;;;;63.30;26.30;;;;;;;0.36;67.51;98666.59;105233;1258;98008;-65
2023/03/19 05:30:00;;;;;;;53.90;25.00;;;;;;;0.43;67.50;98663.41;105123;1267;99228;-64
2023/03/19 05:32:28;;;;;;;58.70;25.20;;;;;;;0.51;67.13;98664.48;105110;1267;99210;-65
2023/03/19 05:34:55;;;;;;;101.70;36.20;;;;;;;0.55;67.28;98665.02;105198;1267;98815;-63
2023/03/19 05:37:21;;;;;;;83.10;34.10;;;;;;;0.59;67.14;98669.95;105017;1268;97989;-66
2023/03/19 05:39:50;;;;;;;75.90;30.90;;;;;;;0.67;67.17;98676.80;104994;1257;97941;-63
2023/03/19 05:42:17;;;;;;;83.60;32.70;;;;;;;0.75;67.27;98675.20;105320;1259;99324;-64
2023/03/19 05:44:44;;;;;;;69.80;28.70;;;;;;;0.83;67.16;98674.69;105191;1257;97925;-64
2023/03/19 05:47:11;;;;;;;72.10;30.10;;;;;;;0.92;67.14;98678.48;105181;1264;99482;-66
2023/03/19 05:49:38;;;;;;;66.40;27.10;;;;;;;1.02;66.93;98681.58;105122;1258;97922;-65
2023/03/19 05:52:06;;;;;;;85.50;31.30;;;;;;;1.11;66.88;98680.23;104973;1259;98818;-64
2023/03/19 05:54:33;;;;;;;72.70;30.90;;;;;;;1.15;67.70;98676.18;105130;1267;97905;-63
2023/03/19 05:57:01;;;;;;;65.00;27.70;;;;;;;1.21;67.43;98672.91;105103;1257;98002;-65
2023/03/19 05:59:30;;;;;;;58.80;25.10;;;;;;;1.32;67.11;98671.69;105198;1258;99224;-63
2023/03/19 06:01:57;;;;;;;61.80;27.30;;;;;;;1.47;67.02;98675.36;105059;1258;98037;-63
2023/03/19 06:04:25;;;;;;;61.40;27.70;;;;;;;1.59;66.81;98682.30;104942;1273;99188;-63
2023/03/19 06:06:52;;;;;;;63.80;27.60;;;;;;;1.69;66.78;98685.27;105133;1255;97920;-64
2023/03/19 06:09:19;;;;;;;68.70;27.90;;;;;;;1.79;66.60;98687.05;105243;1258;97986;-63
2023/03/19 06:11:46;;;;;;;71.30;29.80;;;;;;;1.89;66.48;98685.46;105035;1259;97919;-63
2023/03/19 06:14:14;;;;;;;71.20;29.10;;;;;;;1.97;66.75;98681.92;104984;1259;97982;-63
2023/03/19 06:16:41;;;;;;;51.80;25.60;;;;;;;2.06;67.41;98682.01;105001;1257;97899;-63
2023/03/19 06:19:08;;;;;;;91.00;40.30;;;;;;;2.16;68.09;98683.17;105224;1258;98018;-63
2023/03/19 06:21:35;;;;;;;110.20;46.10;;;;;;;2.29;67.47;98689.71;105041;1275;97979;-62
2023/03/19 06:24:02;;;;;;;78.10;36.10;;;;;;;2.42;67.51;98688.83;104972;1259;99223;-63
2023/03/19 06:26:30;;;;;;;89.00;40.60;;;;;;;2.54;67.51;98688.11;105146;1266;97924;-65
2023/03/19 06:28:56;;;;;;;185.00;77.60;;;;;;;2.68;67.30;98694.31;105071;1257;98028;-64
2023/03/19 06:31:24;;;;;;;219.80;97.10;;;;;;;2.83;67.12;98694.96;105204;1258;98393;-71
2023/03/19 06:33:51;;;;;;;146.90;68.10;;;;;;;3.01;67.09;98699.44;105050;1258;97929;-71
2023/03/19 06:36:18;;;;;;;83.20;39.00;;;;;;;3.20;67.17;98694.92;104733;1265;107290;-66
2023/03/19 06:38:45;;;;;;;96.00;43.90;;;;;;;3.37;66.61;98693.48;105083;1259;97922;-69
2023/03/19 06:41:12;;;;;;;103.50;52.00;;;;;;;3.58;66.07;98697.07;105227;1257;98434;-70
2023/03/19 06:43:41;;;;;;;84.40;41.40;;;;;;;3.80;66.12;98698.16;105340;1267;97960;-69
2023/03/19 06:46:09;;;;;;;68.00;34.50;;;;;;;4.05;66.05;98697.55;105230;1259;99239;-69
2023/03/19 06:48:37;;;;;;;143.60;59.80;;;;;;;4.32;65.76;98696.65;104860;1259;108234;-66
2023/03/19 06:51:05;;;;;;;88.10;41.10;;;;;;;4.59;65.23;98694.13;105072;1257;97905;-67
2023/03/19 06:53:32;;;;;;;41.40;20.60;;;;;;;4.87;64.87;98690.34;105236;1253;98117;-70
2023/03/19 06:55:59;;;;;;;25.90;14.10;;;;;;;5.22;64.44;98692.70;105124;1257;112680;-72
2023/03/19 06:58:26;;;;;;;21.80;10.80;;;;;;;5.60;63.75;98691.42;105224;1257;98030;-66
2023/03/19 07:00:53;;;;;;;10.90;6.40;;;;;;;5.95;62.94;98692.98;105248;1259;97939;-74
2023/03/19 07:03:21;;;;;;;18.50;12.00;;;;;;;6.28;61.96;98695.94;105151;1253;99212;-71
2023/03/19 07:05:51;;;;;;;17.10;9.50;;;;;;;6.57;61.30;98691.29;105070;1257;97992;-75
2023/03/19 07:08:18;;;;;;;14.30;8.00;;;;;;;6.86;60.63;98691.13;105131;1253;112316;-77
2023/03/19 07:10:45;;;;;;;13.70;7.50;;;;;;;7.11;60.22;98694.66;105185;1268;97999;-78
2023/03/19 07:13:12;;;;;;;9.30;5.90;;;;;;;7.29;59.93;98688.91;105232;1253;97998;-74
2023/03/19 07:15:39;;;;;;;11.00;7.00;;;;;;;7.49;59.33;98692.04;105169;1258;97917;-75
2023/03/19 07:18:06;;;;;;;10.70;6.40;;;;;;;7.63;58.88;98692.67;105064;1257;97922;-72
2023/03/19 07:20:33;;;;;;;14.30;6.80;;;;;;;7.74;58.79;98691.48;105246;1259;98119;-75
2023/03/19 07:23:01;;;;;;;12.40;7.20;;;;;;;7.92;58.66;98689.02;105214;1259;97911;-78
2023/03/19 07:25:28;;;;;;;12.20;7.60;;;;;;;8.11;58.42;98691.67;105112;1258;98008;-79
2023/03/19 07:27:55;;;;;;;11.90;7.30;;;;;;;8.31;58.03;98693.34;105211;1257;98007;-74
2023/03/19 07:30:23;;;;;;;14.70;9.40;;;;;;;8.49;57.73;98695.30;105269;1253;97912;-79
2023/03/19 07:32:50;;;;;;;13.40;7.70;;;;;;;8.69;57.37;98691.48;105241;1256;98905;-79
2023/03/19 07:35:18;;;;;;;10.20;6.20;;;;;;;8.91;55.52;98691.91;104688;1261;107273;-76
2023/03/19 07:37:45;;;;;;;16.50;8.00;;;;;;;9.05;55.21;98695.05;105140;1258;97937;-72
2023/03/19 07:40:13;;;;;;;13.00;7.10;;;;;;;9.22;55.44;98694.66;105094;1257;98202;-77
2023/03/19 07:42:40;;;;;;;11.90;6.80;;;;;;;9.39;54.07;98699.58;105051;1258;111132;-79
2023/03/19 07:45:11;;;;;;;14.80;8.40;;;;;;;9.52;53.45;98703.11;105265;1257;99298;-75
2023/03/19 07:47:39;;;;;;;11.90;7.50;;;;;;;9.70;53.68;98705.55;104916;1256;107632;-74
2023/03/19 07:50:07;;;;;;;15.20;8.20;;;;;;;9.92;53.28;98697.15;105129;1259;99209;-75
2023/03/19 07:52:35;;;;;;;11.20;6.80;;;;;;;10.19;53.36;98696.27;105106;1257;98186;-75
2023/03/19 07:55:02;;;;;;;12.40;7.20;;;;;;;10.46;52.24;98696.45;104985;1269;98179;-74
2023/03/19 07:57:31;;;;;;;10.90;6.40;;;;;;;10.66;51.48;98697.79;105037;1262;98250;-77
2023/03/19 07:59:58;;;;;;;13.30;7.70;;;;;;;10.85;51.57;98701.15;105055;1257;108671;-74
2023/03/19 08:02:26;;;;;;;11.10;6.80;;;;;;;11.14;51.04;98699.66;105253;1256;99211;-75
2023/03/19 08:04:53;;;;;;;10.90;6.40;;;;;;;11.37;50.49;98690.74;105140;1266;99225;-72
2023/03/19 08:07:21;;;;;;;10.50;6.90;;;;;;;11.53;49.07;98690.13;104929;1261;99272;-76
2023/03/19 08:09:48;;;;;;;12.60;7.30;;;;;;;11.58;48.29;98690.05;105224;1253;97943;-74
2023/03/19 08:12:15;;;;;;;11.40;5.80;;;;;;;11.61;47.75;98688.41;105154;1270;97901;-70
2023/03/19 08:14:43;;;;;;;10.50;6.50;;;;;;;11.71;47.83;98690.52;105051;1261;98009;-69
2023/03/19 08:17:10;;;;;;;10.60;6.00;;;;;;;11.93;47.73;98690.00;105061;1254;97990;-72
2023/03/19 08:19:37;;;;;;;9.40;6.10;;;;;;;12.11;47.73;98687.05;104913;1257;99256;-67
2023/03/19 08:22:04;;;;;;;8.90;6.00;;;;;;;12.38;47.53;98683.00;105175;1257;97992;-71
2023/03/19 08:24:32;;;;;;;10.50;6.20;;;;;;;12.68;47.05;98683.23;105120;1253;97926;-70
2023/03/19 08:26:59;;;;;;;10.80;7.00;;;;;;;12.94;47.08;98678.50;105109;1268;97994;-72
2023/03/19 08:29:26;;;;;;;10.10;5.70;;;;;;;13.25;46.33;98678.99;105005;1257;97929;-72
2023/03/19 08:31:55;;;;;;;11.40;5.70;;;;;;;13.57;44.93;98679.15;105150;1258;97995;-76
2023/03/19 08:34:22;;;;;;;10.00;5.90;;;;;;;13.90;44.90;98679.16;105210;1264;99238;-72
2023/03/19 08:36:49;;;;;;;9.10;5.30;;;;;;;14.19;43.61;98680.90;105069;1253;97962;-72
2023/03/19 08:39:16;;;;;;;7.80;5.70;;;;;;;14.41;42.69;98682.09;105096;1258;97915;-65
2023/03/19 08:41:44;;;;;;;8.50;4.90;;;;;;;14.60;43.01;98677.33;105185;1260;98816;-72
2023/03/19 08:44:11;;;;;;;9.10;5.60;;;;;;;14.69;42.69;98678.65;105320;1257;98015;-71
2023/03/19 08:46:38;;;;;;;7.60;5.40;;;;;;;14.91;41.89;98681.40;105272;1257;97951;-74
2023/03/19 08:49:06;;;;;;;10.50;6.90;;;;;;;15.16;40.68;98680.16;105017;1259;97951;-74
2023/03/19 08:51:33;;;;;;;8.60;5.80;;;;;;;15.51;39.84;98674.93;105050;1257;98509;-74
2023/03/19 08:54:01;;;;;;;7.10;4.70;;;;;;;15.63;39.25;98673.24;105201;1259;99276;-70
2023/03/19 08:56:28;;;;;;;11.40;7.10;;;;;;;15.62;39.37;98674.16;105093;1257;98830;-70
2023/03/19 08:58:56;;;;;;;10.20;6.50;;;;;;;15.59;39.55;98677.54;104971;1257;98440;-69
2023/03/19 09:01:23;;;;;;;90.20;62.40;;;;;;;15.67;40.04;98682.05;104994;1269;99206;-73
2023/03/19 09:03:50;;;;;;;17.70;10.40;;;;;;;15.93;40.10;98681.72;105029;1252;99214;-74
2023/03/19 09:06:17;;;;;;;9.30;6.20;;;;;;;16.16;39.06;98685.08;105099;1259;98722;-64
2023/03/19 09:08:45;;;;;;;22.90;9.40;;;;;;;16.42;38.88;98686.66;105206;1253;98809;-74
2023/03/19 09:11:13;;;;;;;9.80;6.50;;;;;;;16.80;38.59;98684.74;105246;1259;98031;-75
2023/03/19 09:13:40;;;;;;;8.80;6.00;;;;;;;17.22;37.82;98689.39;105196;1257;98020;-73
2023/03/19 09:16:07;;;;;;;16.70;7.90;;;;;;;17.55;37.25;98690.56;104997;1253;98587;-67
2023/03/19 09:18:35;;;;;;;16.30;7.70;;;;;;;17.87;35.38;98689.45;105101;1259;97928;-74
2023/03/19 09:21:03;;;;;;;19.80;13.80;;;;;;;17.97;35.03;98685.23;105188;1269;97913;-76
2023/03/19 09:23:31;;;;;;;22.40;15.80;;;;;;;18.24;34.86;98685.80;105135;1260;99647;-73
2023/03/19 09:25:58;;;;;;;8.50;6.00;;;;;;;18.45;33.45;98684.80;104855;1273;108702;-74
2023/03/19 09:28:26;;;;;;;8.50;6.00;;;;;;;18.64;34.53;98679.59;105086;1254;98090;-68
2023/03/19 09:30:53;;;;;;;8.90;5.80;;;;;;;18.85;34.27;98677.50;105200;1255;98030;-75
2023/03/19 09:33:21;;;;;;;7.60;4.50;;;;;;;19.31;33.16;98671.55;105072;1259;112322;-73
2023/03/19 09:35:54;;;;;;;8.40;5.40;;;;;;;19.43;31.67;98669.42;105199;1257;97908;-72
2023/03/19 09:38:21;;;;;;;7.10;4.90;;;;;;;19.50;32.63;98671.20;105208;1257;109232;-73
2023/03/19 09:41:04;;;;;;;7.10;5.80;;;;;;;19.63;32.23;98670.98;105049;1259;97899;-72
2023/03/19 09:43:31;;;;;;;9.50;7.60;;;;;;;19.64;32.34;98667.20;105200;1259;99094;-67
2023/03/19 09:46:03;;;;;;;6.40;5.40;;;;;;;19.54;31.46;98667.70;105308;1257;112380;-70
2023/03/19 09:48:39;;;;;;;13.20;7.60;;;;;;;19.30;31.82;98662.42;105043;1266;99020;-66
2023/03/19 09:51:14;;;;;;;8.20;5.70;;;;;;;19.13;32.24;98666.91;105217;1259;108520;-66
2023/03/19 09:53:53;;;;;;;9.20;6.60;;;;;;;19.06;31.74;98666.14;104985;1258;99321;-64
2023/03/19 09:56:21;;;;;;;6.90;5.00;;;;;;;19.00;31.90;98662.92;105205;1257;97816;-67
2023/03/19 09:58:48;;;;;;;6.60;5.10;;;;;;;19.25;32.18;98661.29;105085;1253;111191;-72
2023/03/19 10:01:31;;;;;;;7.80;5.20;;;;;;;19.67;32.17;98665.27;104883;1255;99703;-71
2023/03/19 10:04:08;;;;;;;9.30;5.70;;;;;;;19.91;31.32;98668.75;105128;1257;108427;-70
2023/03/19 10:06:39;;;;;;;10.10;6.30;;;;;;;20.16;31.74;98664.64;104978;1257;98473;-64
2023/03/19 10:09:48;;;;;;;6.80;5.00;;;;;;;20.34;30.93;98665.57;105030;1258;97938;-69
2023/03/19 10:12:43;;;;;;;6.70;5.40;;;;;;;20.62;30.90;98659.11;104702;1262;111788;-66
2023/03/19 10:15:18;;;;;;;7.30;5.90;;;;;;;21.02;30.08;98657.52;104968;1260;99400;-67
2023/03/19 10:18:27;;;;;;;9.00;6.60;;;;;;;21.41;30.34;98650.16;104920;1262;107608;-69
2023/03/19 10:21:25;;;;;;;6.90;5.40;;;;;;;21.91;28.48;98649.60;105030;1261;98013;-68
2023/03/19 10:24:30;;;;;;;6.10;5.10;;;;;;;21.76;28.16;98647.36;104697;1265;98031;-70
2023/03/19 10:27:01;;;;;;;6.00;5.00;;;;;;;21.48;27.39;98640.25;104453;1265;112281;-70
2023/03/19 10:29:29;;;;;;;8.00;5.30;;;;;;;20.95;27.88;98637.45;104368;1266;98340;-68
2023/03/19 10:32:18;;;;;;;7.90;5.40;;;;;;;20.27;28.42;98636.88;104622;1266;107891;-71
2023/03/19 10:34:52;;;;;;;5.50;4.50;;;;;;;20.20;29.51;98637.91;104334;1268;98032;-70
2023/03/19 10:37:29;;;;;;;6.40;5.00;;;;;;;20.55;29.11;98634.21;104550;1261;99136;-64
2023/03/19 10:40:00;;;;;;;8.80;5.60;;;;;;;20.96;29.01;98631.19;104515;1264;110833;-70
2023/03/19 10:43:01;;;;;;;11.40;8.50;;;;;;;21.13;28.64;98625.44;104574;1263;99430;-64
2023/03/19 10:45:36;;;;;;;7.70;5.20;;;;;;;21.52;28.16;98620.84;104513;1263;108632;-63
2023/03/19 10:48:10;;;;;;;6.90;5.10;;;;;;;21.99;27.30;98618.46;104370;1276;98116;-65
2023/03/19 10:50:47;;;;;;;7.20;5.30;;;;;;;22.23;27.22;98616.39;104522;1264;98161;-63
2023/03/19 10:53:14;;;;;;;6.80;4.70;;;;;;;22.43;27.60;98615.08;104634;1263;111655;-65
2023/03/19 10:55:54;;;;;;;5.70;4.90;;;;;;;22.76;26.76;98609.17;104640;1276;98078;-66
2023/03/19 10:58:24;;;;;;;6.80;5.10;;;;;;;23.10;26.94;98609.25;104557;1265;108619;-63
2023/03/19 11:01:15;;;;;;;7.20;5.80;;;;;;;23.38;27.27;98600.20;104787;1253;97985;-63
2023/03/19 11:03:55;;;;;;;;;;;;;;;23.48;25.94;98596.83;104874;1262;98084;-63
2023/03/19 11:06:30;;;;;;;6.70;5.00;;;;;;;23.45;26.61;98594.13;105040;1260;111328;-62
2023/03/19 11:09:01;;;;;;;6.50;5.20;;;;;;;23.51;27.19;98591.86;104941;1272;99026;-63
2023/03/19 11:11:52;;;;;;;7.40;5.60;;;;;;;23.92;27.15;98584.20;105193;1253;108493;-63
2023/03/19 11:14:35;;;;;;;7.20;4.40;;;;;;;24.45;25.91;98581.70;105219;1269;97913;-65
2023/03/19 11:17:17;;;;;;;6.10;4.90;;;;;;;24.35;24.91;98580.09;104859;1253;98006;-62
2023/03/19 11:19:53;;;;;;;6.80;5.20;;;;;;;24.26;25.37;98575.98;105139;1253;112195;-63
2023/03/19 11:22:38;;;;;;;5.70;4.80;;;;;;;24.35;25.32;98569.36;105103;1254;99507;-63
2023/03/19 11:25:25;;;;;;;5.80;5.10;;;;;;;24.29;25.49;98569.89;105181;1256;108560;-63
2023/03/19 11:28:07;;;;;;;11.50;6.20;;;;;;;24.09;24.60;98571.02;105158;1259;97902;-63
2023/03/19 11:31:12;;;;;;;6.20;5.10;;;;;;;24.15;25.55;98568.75;105181;1257;97922;-63